sensor_id;sensor_type;location;lat;lon;timestamp;pressure;altitude;pressure_sealevel;temperature;humidity
21236;BME280;10775;42.678;26.324;2023-03-03T00:01:58;98987.91;;;6.68;100.00
21236;BME280;10775;42.678;26.324;2023-03-03T00:04:24;98983.56;;;6.62;100.00
21236;BME280;10775;42.678;26.324;2023-03-03T00:06:49;98980.06;;;6.62;100.00
21236;BME280;10775;42.678;26.324;2023-03-03T00:09:15;98980.94;;;6.44;100.00
21236;BME280;10775;42.678;26.324;2023-03-03T00:11:40;98982.69;;;6.52;100.00
21236;BME280;10775;42.678;26.324;2023-03-03T00:14:17;98976.59;;;6.41;100.00
21236;BME280;10775;42.678;26.324;2023-03-03T00:16:46;98978.34;;;6.45;100.00
21236;BME280;10775;42.678;26.324;2023-03-03T00:19:19;98974.88;;;6.45;100.00
21236;BME280;10775;42.678;26.324;2023-03-03T00:21:46;98974.03;;;6.47;100.00
21236;BME280;10775;42.678;26.324;2023-03-03T00:26:56;98964.50;;;6.56;100.00
21236;BME280;10775;42.678;26.324;2023-03-03T00:29:26;98953.25;;;6.52;100.00
21236;BME280;10775;42.678;26.324;2023-03-03T00:31:53;98943.72;;;6.56;100.00
21236;BME280;10775;42.678;26.324;2023-03-03T00:34:26;98942.84;;;6.57;100.00
21236;BME280;10775;42.678;26.324;2023-03-03T00:36:53;98933.34;;;6.52;100.00
21236;BME280;10775;42.678;26.324;2023-03-03T00:39:35;98936.78;;;6.53;100.00
21236;BME280;10775;42.678;26.324;2023-03-03T00:42:01;98935.91;;;6.62;100.00
21236;BME280;10775;42.678;26.324;2023-03-03T00:44:42;98928.13;;;6.62;100.00
21236;BME280;10775;42.678;26.324;2023-03-03T00:49:53;98917.72;;;6.62;100.00
21236;BME280;10775;42.678;26.324;2023-03-03T00:52:19;98916.84;;;6.57;100.00
21236;BME280;10775;42.678;26.324;2023-03-03T00:54:45;98909.94;;;6.46;100.00
21236;BME280;10775;42.678;26.324;2023-03-03T00:57:11;98906.50;;;6.37;100.00
21236;BME280;10775;42.678;26.324;2023-03-03T00:59:37;98907.34;;;6.37;100.00
21236;BME280;10775;42.678;26.324;2023-03-03T01:02:04;98909.06;;;6.41;100.00
21236;BME280;10775;42.678;26.324;2023-03-03T01:04:29;98895.22;;;6.51;100.00
21236;BME280;10775;42.678;26.324;2023-03-03T01:06:55;98896.97;;;6.65;100.00
21236;BME280;10775;42.678;26.324;2023-03-03T01:09:20;98891.75;;;6.68;100.00
21236;BME280;10775;42.678;26.324;2023-03-03T01:11:46;98887.41;;;6.68;100.00
21236;BME280;10775;42.678;26.324;2023-03-03T01:14:11;98891.75;;;6.74;100.00
21236;BME280;10775;42.678;26.324;2023-03-03T01:16:37;98894.34;;;6.74;100.00
21236;BME280;10775;42.678;26.324;2023-03-03T01:19:02;98889.13;;;6.74;100.00
21236;BME280;10775;42.678;26.324;2023-03-03T01:21:28;98893.50;;;6.75;100.00
21236;BME280;10775;42.678;26.324;2023-03-03T01:23:53;98886.53;;;6.77;100.00
21236;BME280;10775;42.678;26.324;2023-03-03T01:26:18;98882.22;;;6.78;100.00
21236;BME280;10775;42.678;26.324;2023-03-03T01:28:44;98883.09;;;6.78;100.00
21236;BME280;10775;42.678;26.324;2023-03-03T01:31:09;98876.16;;;6.74;100.00
21236;BME280;10775;42.678;26.324;2023-03-03T01:33:36;98875.28;;;6.69;100.00
21236;BME280;10775;42.678;26.324;2023-03-03T01:36:03;98868.38;;;6.63;100.00
21236;BME280;10775;42.678;26.324;2023-03-03T01:38:28;98870.09;;;6.64;100.00
21236;BME280;10775;42.678;26.324;2023-03-03T01:40:56;98872.72;;;6.60;100.00
21236;BME280;10775;42.678;26.324;2023-03-03T01:43:22;98861.44;;;6.59;100.00
21236;BME280;10775;42.678;26.324;2023-03-03T01:48:17;98868.38;;;6.63;100.00
21236;BME280;10775;42.678;26.324;2023-03-03T01:51:41;98865.78;;;6.59;100.00
21236;BME280;10775;42.678;26.324;2023-03-03T01:53:49;98870.13;;;6.60;100.00
21236;BME280;10775;42.678;26.324;2023-03-03T01:56:15;98868.34;;;6.62;100.00
21236;BME280;10775;42.678;26.324;2023-03-03T01:58:46;98870.13;;;6.63;100.00
21236;BME280;10775;42.678;26.324;2023-03-03T02:01:15;98875.28;;;6.66;100.00
21236;BME280;10775;42.678;26.324;2023-03-03T02:03:42;98872.69;;;6.69;100.00
21236;BME280;10775;42.678;26.324;2023-03-03T02:06:12;98872.69;;;6.69;100.00
21236;BME280;10775;42.678;26.324;2023-03-03T02:08:41;98881.34;;;6.69;100.00
21236;BME280;10775;42.678;26.324;2023-03-03T02:11:09;98879.63;;;6.68;100.00
21236;BME280;10775;42.678;26.324;2023-03-03T02:13:35;98874.44;;;6.64;100.00
21236;BME280;10775;42.678;26.324;2023-03-03T02:16:00;98880.50;;;6.63;100.00
21236;BME280;10775;42.678;26.324;2023-03-03T02:18:26;98879.63;;;6.64;100.00
21236;BME280;10775;42.678;26.324;2023-03-03T02:20:57;98871.84;;;6.61;100.00
21236;BME280;10775;42.678;26.324;2023-03-03T02:28:24;98877.91;;;6.58;100.00
21236;BME280;10775;42.678;26.324;2023-03-03T02:30:54;98876.16;;;6.46;100.00
21236;BME280;10775;42.678;26.324;2023-03-03T02:33:20;98876.19;;;6.48;100.00
21236;BME280;10775;42.678;26.324;2023-03-03T02:35:46;98881.38;;;6.52;100.00
21236;BME280;10775;42.678;26.324;2023-03-03T02:38:24;98884.81;;;6.59;100.00
21236;BME280;10775;42.678;26.324;2023-03-03T02:43:51;98878.75;;;6.46;100.00
21236;BME280;10775;42.678;26.324;2023-03-03T02:46:19;98880.50;;;6.53;100.00
21236;BME280;10775;42.678;26.324;2023-03-03T02:48:45;98883.09;;;6.53;100.00
21236;BME280;10775;42.678;26.324;2023-03-03T02:51:10;98880.50;;;6.57;100.00
21236;BME280;10775;42.678;26.324;2023-03-03T02:53:36;98880.50;;;6.58;100.00
21236;BME280;10775;42.678;26.324;2023-03-03T02:56:01;98886.56;;;6.59;100.00
21236;BME280;10775;42.678;26.324;2023-03-03T02:58:29;98873.56;;;6.54;100.00
21236;BME280;10775;42.678;26.324;2023-03-03T03:00:54;98869.25;;;6.45;100.00
21236;BME280;10775;42.678;26.324;2023-03-03T03:03:21;98877.03;;;6.48;100.00
21236;BME280;10775;42.678;26.324;2023-03-03T03:05:47;98873.59;;;6.45;100.00
21236;BME280;10775;42.678;26.324;2023-03-03T03:08:12;98864.94;;;6.47;100.00
21236;BME280;10775;42.678;26.324;2023-03-03T03:10:38;98865.78;;;6.23;100.00
21236;BME280;10775;42.678;26.324;2023-03-03T03:13:03;98863.19;;;6.03;100.00
21236;BME280;10775;42.678;26.324;2023-03-03T03:15:29;98864.84;;;5.78;100.00
21236;BME280;10775;42.678;26.324;2023-03-03T03:17:54;98863.13;;;5.89;100.00
21236;BME280;10775;42.678;26.324;2023-03-03T03:20:20;98858.00;;;6.09;100.00
21236;BME280;10775;42.678;26.324;2023-03-03T03:22:45;98854.53;;;6.18;100.00
21236;BME280;10775;42.678;26.324;2023-03-03T03:25:11;98860.59;;;6.25;100.00
21236;BME280;10775;42.678;26.324;2023-03-03T03:27:36;98858.88;;;6.39;100.00
21236;BME280;10775;42.678;26.324;2023-03-03T03:30:02;98861.47;;;6.47;100.00
21236;BME280;10775;42.678;26.324;2023-03-03T03:32:27;98864.91;;;6.49;100.00
21236;BME280;10775;42.678;26.324;2023-03-03T03:34:53;98866.63;;;6.51;100.00
21236;BME280;10775;42.678;26.324;2023-03-03T03:37:18;98856.25;;;6.51;100.00
21236;BME280;10775;42.678;26.324;2023-03-03T03:39:44;98857.13;;;6.35;100.00
21236;BME280;10775;42.678;26.324;2023-03-03T03:42:09;98864.06;;;6.39;100.00
21236;BME280;10775;42.678;26.324;2023-03-03T03:44:35;98866.66;;;6.33;100.00
21236;BME280;10775;42.678;26.324;2023-03-03T03:47:01;98864.06;;;6.39;100.00
21236;BME280;10775;42.678;26.324;2023-03-03T03:49:26;98859.72;;;6.47;100.00
21236;BME280;10775;42.678;26.324;2023-03-03T03:51:52;98864.06;;;6.50;100.00
21236;BME280;10775;42.678;26.324;2023-03-03T03:54:17;98861.47;;;6.55;100.00
21236;BME280;10775;42.678;26.324;2023-03-03T03:56:42;98857.13;;;6.55;100.00
21236;BME280;10775;42.678;26.324;2023-03-03T03:59:08;98865.78;;;6.59;100.00
21236;BME280;10775;42.678;26.324;2023-03-03T04:01:33;98870.13;;;6.60;100.00
21236;BME280;10775;42.678;26.324;2023-03-03T04:03:59;98866.66;;;6.58;100.00
21236;BME280;10775;42.678;26.324;2023-03-03T04:06:24;98873.56;;;6.60;100.00
21236;BME280;10775;42.678;26.324;2023-03-03T04:08:50;98873.56;;;6.60;100.00
21236;BME280;10775;42.678;26.324;2023-03-03T04:11:15;98878.75;;;6.59;100.00
21236;BME280;10775;42.678;26.324;2023-03-03T04:13:41;98871.84;;;6.55;100.00
21236;BME280;10775;42.678;26.324;2023-03-03T04:16:07;98870.09;;;6.53;100.00
21236;BME280;10775;42.678;26.324;2023-03-03T04:18:32;98864.91;;;6.58;100.00
21236;BME280;10775;42.678;26.324;2023-03-03T04:20:58;98864.91;;;6.58;100.00
21236;BME280;10775;42.678;26.324;2023-03-03T04:23:23;98864.06;;;6.58;100.00
21236;BME280;10775;42.678;26.324;2023-03-03T04:25:49;98859.72;;;6.55;100.00
21236;BME280;10775;42.678;26.324;2023-03-03T04:28:15;98863.19;;;6.46;100.00
21236;BME280;10775;42.678;26.324;2023-03-03T04:30:41;98862.34;;;6.52;100.00
21236;BME280;10775;42.678;26.324;2023-03-03T04:33:06;98857.13;;;6.53;100.00
21236;BME280;10775;42.678;26.324;2023-03-03T04:35:32;98861.44;;;6.59;100.00
21236;BME280;10775;42.678;26.324;2023-03-03T04:37:58;98859.72;;;6.57;100.00
21236;BME280;10775;42.678;26.324;2023-03-03T04:40:23;98864.06;;;6.58;100.00
21236;BME280;10775;42.678;26.324;2023-03-03T04:42:49;98858.84;;;6.58;100.00
21236;BME280;10775;42.678;26.324;2023-03-03T04:45:15;98851.91;;;6.57;100.00
21236;BME280;10775;42.678;26.324;2023-03-03T04:47:40;98846.75;;;6.52;100.00
21236;BME280;10775;42.678;26.324;2023-03-03T04:50:06;98845.00;;;6.52;100.00
21236;BME280;10775;42.678;26.324;2023-03-03T04:52:32;98853.66;;;6.50;100.00
21236;BME280;10775;42.678;26.324;2023-03-03T04:54:58;98854.53;;;6.41;100.00
21236;BME280;10775;42.678;26.324;2023-03-03T04:57:23;98855.41;;;6.43;100.00
21236;BME280;10775;42.678;26.324;2023-03-03T04:59:49;98857.13;;;6.38;100.00
21236;BME280;10775;42.678;26.324;2023-03-03T05:02:16;98860.59;;;6.37;100.00
21236;BME280;10775;42.678;26.324;2023-03-03T05:04:41;98857.13;;;6.41;100.00
21236;BME280;10775;42.678;26.324;2023-03-03T05:07:07;98858.00;;;6.43;100.00
21236;BME280;10775;42.678;26.324;2023-03-03T05:09:33;98863.19;;;6.46;100.00
21236;BME280;10775;42.678;26.324;2023-03-03T05:11:58;98864.06;;;6.50;100.00
21236;BME280;10775;42.678;26.324;2023-03-03T05:14:24;98869.25;;;6.48;100.00
21236;BME280;10775;42.678;26.324;2023-03-03T05:16:50;98860.59;;;6.40;100.00
21236;BME280;10775;42.678;26.324;2023-03-03T05:19:16;98862.34;;;6.44;100.00
21236;BME280;10775;42.678;26.324;2023-03-03T05:21:41;98867.53;;;6.47;100.00
21236;BME280;10775;42.678;26.324;2023-03-03T05:24:11;98863.19;;;6.56;100.00
21236;BME280;10775;42.678;26.324;2023-03-03T05:26:37;98864.91;;;6.50;100.00
21236;BME280;10775;42.678;26.324;2023-03-03T05:29:03;98868.38;;;6.59;100.00
21236;BME280;10775;42.678;26.324;2023-03-03T05:31:28;98867.50;;;6.69;100.00
21236;BME280;10775;42.678;26.324;2023-03-03T05:33:55;98859.72;;;6.61;100.00
21236;BME280;10775;42.678;26.324;2023-03-03T05:36:21;98866.63;;;6.61;100.00
21236;BME280;10775;42.678;26.324;2023-03-03T05:38:46;98864.06;;;6.55;100.00
21236;BME280;10775;42.678;26.324;2023-03-03T05:41:12;98860.59;;;6.57;100.00
21236;BME280;10775;42.678;26.324;2023-03-03T05:43:37;98860.59;;;6.65;100.00
21236;BME280;10775;42.678;26.324;2023-03-03T05:46:03;98863.16;;;6.66;100.00
21236;BME280;10775;42.678;26.324;2023-03-03T05:48:28;98867.50;;;6.69;100.00
21236;BME280;10775;42.678;26.324;2023-03-03T05:50:57;98859.72;;;6.75;100.00
21236;BME280;10775;42.678;26.324;2023-03-03T05:53:23;98858.81;;;6.76;100.00
21236;BME280;10775;42.678;26.324;2023-03-03T05:55:49;98853.63;;;6.81;100.00
21236;BME280;10775;42.678;26.324;2023-03-03T05:58:14;98845.81;;;6.87;100.00
21236;BME280;10775;42.678;26.324;2023-03-03T06:00:39;98846.66;;;6.84;100.00
21236;BME280;10775;42.678;26.324;2023-03-03T06:03:05;98844.94;;;6.95;100.00
21236;BME280;10775;42.678;26.324;2023-03-03T06:05:30;98841.44;;;7.00;100.00
21236;BME280;10775;42.678;26.324;2023-03-03T06:07:56;98837.09;;;7.11;100.00
21236;BME280;10775;42.678;26.324;2023-03-03T06:10:21;98832.69;;;7.21;100.00
21236;BME280;10775;42.678;26.324;2023-03-03T06:12:47;98838.72;;;7.32;100.00
21236;BME280;10775;42.678;26.324;2023-03-03T06:15:12;98834.38;;;7.37;100.00
21236;BME280;10775;42.678;26.324;2023-03-03T06:17:38;98830.00;;;7.42;100.00
21236;BME280;10775;42.678;26.324;2023-03-03T06:20:03;98834.34;;;7.45;100.00
21236;BME280;10775;42.678;26.324;2023-03-03T06:22:30;98833.44;;;7.52;100.00
21236;BME280;10775;42.678;26.324;2023-03-03T06:24:56;98832.53;;;7.56;100.00
21236;BME280;10775;42.678;26.324;2023-03-03T06:27:21;98842.06;;;7.58;100.00
21236;BME280;10775;42.678;26.324;2023-03-03T06:29:47;98844.63;;;7.66;99.80
21236;BME280;10775;42.678;26.324;2023-03-03T06:32:12;98847.22;;;7.68;100.00
21236;BME280;10775;42.678;26.324;2023-03-03T06:34:38;98848.97;;;7.67;98.69
21236;BME280;10775;42.678;26.324;2023-03-03T06:37:03;98854.19;;;7.61;99.60
21236;BME280;10775;42.678;26.324;2023-03-03T06:39:29;98847.31;;;7.46;98.76
21236;BME280;10775;42.678;26.324;2023-03-03T06:41:54;98857.84;;;7.15;99.87
21236;BME280;10775;42.678;26.324;2023-03-03T06:44:20;98858.63;;;7.36;100.00
21236;BME280;10775;42.678;26.324;2023-03-03T06:46:45;98866.38;;;7.54;100.00
21236;BME280;10775;42.678;26.324;2023-03-03T06:49:11;98859.34;;;7.70;99.56
21236;BME280;10775;42.678;26.324;2023-03-03T06:51:37;98857.59;;;7.74;98.99
21236;BME280;10775;42.678;26.324;2023-03-03T06:54:16;98857.59;;;7.74;98.87
21236;BME280;10775;42.678;26.324;2023-03-03T06:56:43;98861.94;;;7.72;98.88
21236;BME280;10775;42.678;26.324;2023-03-03T06:59:15;98861.06;;;7.76;98.23
21236;BME280;10775;42.678;26.324;2023-03-03T07:01:42;98863.66;;;7.77;98.35
21236;BME280;10775;42.678;26.324;2023-03-03T07:04:24;98872.31;;;7.81;97.98
21236;BME280;10775;42.678;26.324;2023-03-03T07:06:50;98861.97;;;7.67;98.51
21236;BME280;10775;42.678;26.324;2023-03-03T07:09:24;98866.28;;;7.71;98.56
21236;BME280;10775;42.678;26.324;2023-03-03T07:12:11;98859.41;;;7.58;99.05
21236;BME280;10775;42.678;26.324;2023-03-03T07:14:42;98859.44;;;7.55;99.66
21236;BME280;10775;42.678;26.324;2023-03-03T07:17:18;98861.13;;;7.59;98.86
21236;BME280;10775;42.678;26.324;2023-03-03T07:19:45;98858.53;;;7.59;98.83
21236;BME280;10775;42.678;26.324;2023-03-03T07:22:15;98872.38;;;7.64;98.75
21236;BME280;10775;42.678;26.324;2023-03-03T07:24:42;98870.72;;;7.57;98.72
21236;BME280;10775;42.678;26.324;2023-03-03T07:27:27;98871.59;;;7.54;99.33
21236;BME280;10775;42.678;26.324;2023-03-03T07:30:25;98869.03;;;7.40;99.35
21236;BME280;10775;42.678;26.324;2023-03-03T07:32:55;98866.38;;;7.48;99.37
21236;BME280;10775;42.678;26.324;2023-03-03T07:35:37;98868.13;;;7.49;99.60
21236;BME280;10775;42.678;26.324;2023-03-03T07:40:57;98855.91;;;7.63;98.88
21236;BME280;10775;42.678;26.324;2023-03-03T07:48:40;98858.56;;;7.53;98.99
21236;BME280;10775;42.678;26.324;2023-03-03T07:53:47;98862.00;;;7.61;98.80
21236;BME280;10775;42.678;26.324;2023-03-03T07:56:29;98847.31;;;7.48;98.48
21236;BME280;10775;42.678;26.324;2023-03-03T07:58:56;98848.13;;;7.59;98.41
21236;BME280;10775;42.678;26.324;2023-03-03T08:03:55;98838.50;;;7.72;98.36
21236;BME280;10775;42.678;26.324;2023-03-03T08:06:43;98832.44;;;7.73;97.71
21236;BME280;10775;42.678;26.324;2023-03-03T08:14:45;98810.56;;;7.97;96.46
21236;BME280;10775;42.678;26.324;2023-03-03T08:17:26;98813.91;;;8.14;95.38
21236;BME280;10775;42.678;26.324;2023-03-03T08:19:55;98810.41;;;8.20;95.25
21236;BME280;10775;42.678;26.324;2023-03-03T08:22:30;98798.94;;;8.41;94.65
21236;BME280;10775;42.678;26.324;2023-03-03T08:24:57;98794.38;;;8.66;94.34
21236;BME280;10775;42.678;26.324;2023-03-03T08:27:23;98791.31;;;9.04;93.51
21236;BME280;10775;42.678;26.324;2023-03-03T08:29:48;98786.53;;;9.40;89.83
21236;BME280;10775;42.678;26.324;2023-03-03T08:32:14;98792.66;;;9.39;89.06
21236;BME280;10775;42.678;26.324;2023-03-03T08:34:40;98787.94;;;9.64;89.45
21236;BME280;10775;42.678;26.324;2023-03-03T08:37:05;98792.94;;;9.78;87.40
21236;BME280;10775;42.678;26.324;2023-03-03T08:39:31;98785.06;;;10.38;86.63
21236;BME280;10775;42.678;26.324;2023-03-03T08:41:57;98792.41;;;10.66;82.70
21236;BME280;10775;42.678;26.324;2023-03-03T08:44:22;98783.47;;;10.25;82.83
21236;BME280;10775;42.678;26.324;2023-03-03T08:46:48;98789.09;;;10.55;84.13
21236;BME280;10775;42.678;26.324;2023-03-03T08:49:13;98790.88;;;10.53;82.12
21236;BME280;10775;42.678;26.324;2023-03-03T08:51:39;98791.78;;;10.53;82.72
21236;BME280;10775;42.678;26.324;2023-03-03T08:54:04;98790.19;;;10.43;81.58
21236;BME280;10775;42.678;26.324;2023-03-03T08:56:30;98795.88;;;10.12;83.09
21236;BME280;10775;42.678;26.324;2023-03-03T08:58:55;98794.66;;;9.80;83.94
21236;BME280;10775;42.678;26.324;2023-03-03T09:01:21;98793.28;;;9.53;85.19
21236;BME280;10775;42.678;26.324;2023-03-03T09:03:46;98804.69;;;9.49;85.93
21236;BME280;10775;42.678;26.324;2023-03-03T09:06:12;98800.31;;;9.51;85.75
21236;BME280;10775;42.678;26.324;2023-03-03T09:08:37;98799.63;;;9.37;86.38
21236;BME280;10775;42.678;26.324;2023-03-03T09:11:09;98802.56;;;9.11;87.28
21236;BME280;10775;42.678;26.324;2023-03-03T09:13:36;98795.72;;;9.01;88.14
21236;BME280;10775;42.678;26.324;2023-03-03T09:16:10;98798.38;;;8.96;88.13
21236;BME280;10775;42.678;26.324;2023-03-03T09:18:37;98797.94;;;8.57;89.55
21236;BME280;10775;42.678;26.324;2023-03-03T09:21:23;98807.38;;;8.69;90.27
21236;BME280;10775;42.678;26.324;2023-03-03T09:23:56;98802.22;;;8.61;90.28
21236;BME280;10775;42.678;26.324;2023-03-03T09:26:28;98804.81;;;8.64;90.48
21236;BME280;10775;42.678;26.324;2023-03-03T09:29:08;98795.31;;;8.60;90.83
21236;BME280;10775;42.678;26.324;2023-03-03T09:31:48;98800.44;;;8.68;90.69
21236;BME280;10775;42.678;26.324;2023-03-03T09:34:23;98804.72;;;8.74;90.23
21236;BME280;10775;42.678;26.324;2023-03-03T09:36:51;98800.41;;;8.71;90.51
21236;BME280;10775;42.678;26.324;2023-03-03T09:39:28;98807.28;;;8.80;90.39
21236;BME280;10775;42.678;26.324;2023-03-03T10:03:19;98778.09;;;8.41;92.83
21236;BME280;10775;42.678;26.324;2023-03-03T10:06:00;98770.38;;;8.30;92.03
21236;BME280;10775;42.678;26.324;2023-03-03T10:11:14;98758.91;;;8.51;92.17
21236;BME280;10775;42.678;26.324;2023-03-03T10:20:00;98746.56;;;8.70;90.89
21236;BME280;10775;42.678;26.324;2023-03-03T10:24:51;98748.56;;;8.46;91.51
21236;BME280;10775;42.678;26.324;2023-03-03T10:30:22;98736.34;;;8.50;91.22
21236;BME280;10775;42.678;26.324;2023-03-03T10:43:31;98723.13;;;8.67;91.50
21236;BME280;10775;42.678;26.324;2023-03-03T10:46:41;98717.69;;;8.85;90.13
21236;BME280;10775;42.678;26.324;2023-03-03T10:50:15;98714.94;;;8.96;90.02
21236;BME280;10775;42.678;26.324;2023-03-03T10:58:08;98696.59;;;9.05;88.74
21236;BME280;10775;42.678;26.324;2023-03-03T11:00:48;98692.38;;;8.95;89.30
21236;BME280;10775;42.678;26.324;2023-03-03T11:06:21;98681.78;;;9.04;88.50
21236;BME280;10775;42.678;26.324;2023-03-03T11:09:01;98686.97;;;9.07;88.62
21236;BME280;10775;42.678;26.324;2023-03-03T11:12:31;98679.13;;;9.10;88.18
21236;BME280;10775;42.678;26.324;2023-03-03T11:17:24;98687.16;;;8.93;88.50
21236;BME280;10775;42.678;26.324;2023-03-03T11:26:16;98681.56;;;8.53;90.91
21236;BME280;10775;42.678;26.324;2023-03-03T11:40:19;98682.00;;;8.12;95.46
21236;BME280;10775;42.678;26.324;2023-03-03T11:43:00;98680.22;;;8.15;94.03
21236;BME280;10775;42.678;26.324;2023-03-03T11:45:38;98683.63;;;8.22;94.24
21236;BME280;10775;42.678;26.324;2023-03-03T11:51:01;98680.13;;;8.23;93.67
21236;BME280;10775;42.678;26.324;2023-03-03T11:53:53;98680.22;;;8.15;95.63
21236;BME280;10775;42.678;26.324;2023-03-03T12:07:43;98663.06;;;7.94;97.60
21236;BME280;10775;42.678;26.324;2023-03-03T12:13:20;98666.44;;;8.02;95.79
21236;BME280;10775;42.678;26.324;2023-03-03T12:16:03;98669.94;;;8.00;99.20
21236;BME280;10775;42.678;26.324;2023-03-03T12:18:56;98672.94;;;7.60;98.32
21236;BME280;10775;42.678;26.324;2023-03-03T12:24:17;98666.94;;;7.50;100.00
21236;BME280;10775;42.678;26.324;2023-03-03T12:26:53;98675.56;;;7.54;100.00
21236;BME280;10775;42.678;26.324;2023-03-03T12:29:26;98676.47;;;7.48;100.00
21236;BME280;10775;42.678;26.324;2023-03-03T12:32:03;98672.13;;;7.50;99.89
21236;BME280;10775;42.678;26.324;2023-03-03T12:34:57;98682.50;;;7.55;100.00
21236;BME280;10775;42.678;26.324;2023-03-03T12:37:51;98680.69;;;7.61;100.00
21236;BME280;10775;42.678;26.324;2023-03-03T12:40:20;98674.63;;;7.64;100.00
21236;BME280;10775;42.678;26.324;2023-03-03T12:46:05;98669.53;;;7.52;100.00
21236;BME280;10775;42.678;26.324;2023-03-03T12:48:41;98675.56;;;7.54;100.00
21236;BME280;10775;42.678;26.324;2023-03-03T12:51:34;98672.97;;;7.57;100.00
21236;BME280;10775;42.678;26.324;2023-03-03T12:54:23;98672.22;;;7.39;100.00
21236;BME280;10775;42.678;26.324;2023-03-03T12:56:55;98663.53;;;7.40;100.00
21236;BME280;10775;42.678;26.324;2023-03-03T13:04:55;98658.78;;;7.89;97.65
21236;BME280;10775;42.678;26.324;2023-03-03T13:07:40;98655.50;;;7.70;99.84
21236;BME280;10775;42.678;26.324;2023-03-03T13:20:43;98654.78;;;7.52;99.58
21236;BME280;10775;42.678;26.324;2023-03-03T13:23:37;98670.31;;;7.58;98.83
21236;BME280;10775;42.678;26.324;2023-03-03T13:26:16;98668.69;;;7.47;99.53
21236;BME280;10775;42.678;26.324;2023-03-03T13:28:58;98669.63;;;7.39;100.00
21236;BME280;10775;42.678;26.324;2023-03-03T13:31:38;98666.19;;;7.34;99.74
21236;BME280;10775;42.678;26.324;2023-03-03T13:34:09;98667.09;;;7.27;100.00
21236;BME280;10775;42.678;26.324;2023-03-03T13:36:46;98670.56;;;7.28;100.00
21236;BME280;10775;42.678;26.324;2023-03-03T13:39:26;98653.13;;;7.40;100.00
21236;BME280;10775;42.678;26.324;2023-03-03T13:42:05;98659.25;;;7.33;100.00
21236;BME280;10775;42.678;26.324;2023-03-03T13:44:36;98658.25;;;7.48;100.00
21236;BME280;10775;42.678;26.324;2023-03-03T13:47:13;98654.78;;;7.51;100.00
21236;BME280;10775;42.678;26.324;2023-03-03T13:52:28;98654.91;;;7.37;100.00
21236;BME280;10775;42.678;26.324;2023-03-03T13:55:20;98649.63;;;7.43;99.75
21236;BME280;10775;42.678;26.324;2023-03-03T13:57:59;98649.72;;;7.31;100.00
21236;BME280;10775;42.678;26.324;2023-03-03T14:00:52;98648.81;;;7.39;100.00
21236;BME280;10775;42.678;26.324;2023-03-03T14:03:44;98650.59;;;7.33;100.00
21236;BME280;10775;42.678;26.324;2023-03-03T14:06:14;98640.97;;;7.43;100.00
21236;BME280;10775;42.678;26.324;2023-03-03T14:11:32;98640.22;;;7.31;100.00
21236;BME280;10775;42.678;26.324;2023-03-03T14:19:58;98631.72;;;7.05;100.00
21236;BME280;10775;42.678;26.324;2023-03-03T14:25:09;98638.75;;;6.90;100.00
21236;BME280;10775;42.678;26.324;2023-03-03T14:38:23;98636.16;;;6.86;100.00
21236;BME280;10775;42.678;26.324;2023-03-03T14:43:38;98631.00;;;6.77;100.00
21236;BME280;10775;42.678;26.324;2023-03-03T14:48:53;98618.03;;;6.77;100.00
21236;BME280;10775;42.678;26.324;2023-03-03T14:51:25;98614.59;;;6.70;100.00
21236;BME280;10775;42.678;26.324;2023-03-03T14:53:54;98610.25;;;6.73;100.00
21236;BME280;10775;42.678;26.324;2023-03-03T15:01:39;98613.84;;;6.46;100.00
21236;BME280;10775;42.678;26.324;2023-03-03T15:06:54;98615.59;;;6.47;100.00
21236;BME280;10775;42.678;26.324;2023-03-03T15:09:26;98620.72;;;6.58;100.00
21236;BME280;10775;42.678;26.324;2023-03-03T15:11:56;98627.69;;;6.55;100.00
21236;BME280;10775;42.678;26.324;2023-03-03T15:14:29;98623.31;;;6.57;100.00
21236;BME280;10775;42.678;26.324;2023-03-03T15:19:48;98625.84;;;6.75;100.00
21236;BME280;10775;42.678;26.324;2023-03-03T15:30:28;98630.09;;;6.84;100.00
21236;BME280;10775;42.678;26.324;2023-03-03T15:33:31;98629.28;;;6.80;100.00
21236;BME280;10775;42.678;26.324;2023-03-03T15:36:23;98634.50;;;6.72;100.00
21236;BME280;10775;42.678;26.324;2023-03-03T15:41:50;98638.88;;;6.66;100.00
21236;BME280;10775;42.678;26.324;2023-03-03T15:44:30;98638.91;;;6.60;100.00
21236;BME280;10775;42.678;26.324;2023-03-03T15:55:46;98647.59;;;6.57;100.00
21236;BME280;10775;42.678;26.324;2023-03-03T16:01:01;98648.47;;;6.48;100.00
21236;BME280;10775;42.678;26.324;2023-03-03T16:03:37;98652.78;;;6.56;100.00
21236;BME280;10775;42.678;26.324;2023-03-03T16:06:15;98647.53;;;6.63;100.00
21236;BME280;10775;42.678;26.324;2023-03-03T16:09:06;98648.34;;;6.74;100.00
21236;BME280;10775;42.678;26.324;2023-03-03T16:17:18;98657.00;;;6.78;100.00
21236;BME280;10775;42.678;26.324;2023-03-03T16:20:07;98667.44;;;6.70;100.00
21236;BME280;10775;42.678;26.324;2023-03-03T16:26:45;98654.38;;;6.83;100.00
21236;BME280;10775;42.678;26.324;2023-03-03T16:31:42;98672.59;;;6.77;100.00
21236;BME280;10775;42.678;26.324;2023-03-03T16:37:16;98681.25;;;6.77;100.00
21236;BME280;10775;42.678;26.324;2023-03-03T16:42:21;98690.78;;;6.73;100.00
21236;BME280;10775;42.678;26.324;2023-03-03T16:58:42;98718.66;;;6.30;100.00
21236;BME280;10775;42.678;26.324;2023-03-03T17:01:19;98728.16;;;6.36;100.00
21236;BME280;10775;42.678;26.324;2023-03-03T17:03:54;98720.34;;;6.39;100.00
21236;BME280;10775;42.678;26.324;2023-03-03T17:06:45;98723.81;;;6.41;100.00
21236;BME280;10775;42.678;26.324;2023-03-03T17:12:01;98711.69;;;6.47;100.00
21236;BME280;10775;42.678;26.324;2023-03-03T17:17:14;98714.31;;;6.35;100.00
21236;BME280;10775;42.678;26.324;2023-03-03T17:22:19;98720.38;;;6.34;100.00
21236;BME280;10775;42.678;26.324;2023-03-03T17:25:14;98720.41;;;6.26;100.00